createdAt,value
2022-10-16T00:01:32.754Z,96935.34
2022-10-16T00:04:04.018Z,96940.88
2022-10-16T00:06:33.371Z,96938.53
2022-10-16T00:09:01.964Z,96947.69
2022-10-16T00:11:34.186Z,96950.97
2022-10-16T00:14:04.655Z,96941.53
2022-10-16T00:16:35.889Z,96950.91
2022-10-16T00:19:04.262Z,96952.22
2022-10-16T00:21:34.404Z,96952.06
2022-10-16T00:24:21.290Z,96943.97
2022-10-16T00:26:52.295Z,96944.00
2022-10-16T00:29:20.647Z,96946.97
2022-10-16T00:31:50.698Z,96952.09
2022-10-16T00:34:19.210Z,96952.22
2022-10-16T00:36:47.764Z,96950.97
2022-10-16T00:39:16.024Z,96950.63
2022-10-16T00:41:44.468Z,96946.72
2022-10-16T00:44:45.416Z,96952.72
2022-10-16T00:47:21.000Z,96949.94
2022-10-16T00:49:53.744Z,96960.34
2022-10-16T00:52:22.654Z,96959.44
2022-10-16T00:54:52.441Z,96960.44
2022-10-16T00:57:21.628Z,96967.09
2022-10-16T00:59:49.952Z,96965.59
2022-10-16T01:02:20.122Z,96969.38
2022-10-16T01:04:51.053Z,96972.19
2022-10-16T01:07:30.975Z,96971.84
2022-10-16T01:10:09.984Z,96977.97
2022-10-16T01:12:47.036Z,96967.78
2022-10-16T01:15:25.899Z,96982.47
2022-10-16T01:18:03.325Z,96980.34
2022-10-16T01:20:35.394Z,96990.50
2022-10-16T01:23:29.545Z,96988.44
2022-10-16T01:26:22.457Z,96996.97
2022-10-16T01:28:57.342Z,96978.72
2022-10-16T01:31:29.059Z,96983.97
2022-10-16T01:34:03.689Z,96990.06
2022-10-16T01:36:39.488Z,96990.91
2022-10-16T01:39:11.105Z,96983.69
2022-10-16T01:41:43.754Z,96978.19
2022-10-16T01:44:17.138Z,96978.63
2022-10-16T01:46:49.907Z,96975.94
2022-10-16T01:49:20.964Z,96975.88
2022-10-16T01:51:54.731Z,96973.56
2022-10-16T01:54:25.623Z,96973.06
2022-10-16T01:56:54.119Z,96961.25
2022-10-16T01:59:27.813Z,96963.88
2022-10-16T02:02:01.781Z,96968.97
2022-10-16T02:04:34.056Z,96987.78
2022-10-16T02:07:03.451Z,96992.28
2022-10-16T02:09:32.862Z,96992.75
2022-10-16T02:12:05.690Z,97006.72
2022-10-16T02:14:35.572Z,97009.06
2022-10-16T02:17:03.824Z,96997.25
2022-10-16T02:19:32.444Z,96995.94
2022-10-16T02:22:05.944Z,96999.78
2022-10-16T02:24:40.986Z,96994.31
2022-10-16T02:27:15.874Z,96997.78
2022-10-16T02:29:51.330Z,97011.00
2022-10-16T02:32:25.936Z,96998.72
2022-10-16T02:34:55.660Z,97005.53
2022-10-16T02:37:24.295Z,96999.34
2022-10-16T02:39:54.000Z,97009.91
2022-10-16T02:42:22.410Z,96998.06
2022-10-16T02:44:52.220Z,97008.09
2022-10-16T02:47:20.648Z,97010.16
2022-10-16T02:49:48.985Z,97003.84
2022-10-16T02:52:17.620Z,97006.38
2022-10-16T02:54:45.876Z,97008.00
2022-10-16T02:57:14.525Z,97008.53
2022-10-16T02:59:43.099Z,97015.66
2022-10-16T03:02:13.017Z,97016.19
2022-10-16T03:04:41.753Z,97012.13
2022-10-16T03:07:10.237Z,97011.34
2022-10-16T03:09:38.691Z,97021.09
2022-10-16T03:12:07.379Z,97020.63
2022-10-16T03:14:35.962Z,97014.63
2022-10-16T03:17:04.330Z,97023.41
2022-10-16T03:19:33.939Z,97025.91
2022-10-16T03:22:02.287Z,97027.53
2022-10-16T03:24:30.789Z,97012.88
2022-10-16T03:26:59.235Z,97024.03
2022-10-16T03:29:28.756Z,97018.69
2022-10-16T03:31:57.272Z,97021.06
2022-10-16T03:34:25.842Z,97017.13
2022-10-16T03:36:55.716Z,97016.34
2022-10-16T03:39:24.387Z,97010.81
2022-10-16T03:41:52.742Z,97012.44
2022-10-16T03:44:22.511Z,97006.97
2022-10-16T03:46:51.108Z,97009.22
2022-10-16T03:49:19.295Z,97032.50
2022-10-16T03:51:47.674Z,97027.22
2022-10-16T03:54:17.389Z,97035.09
2022-10-16T03:56:45.730Z,97041.84
2022-10-16T03:59:14.024Z,97046.34
2022-10-16T04:01:42.401Z,97053.41
2022-10-16T04:04:11.146Z,97053.56
2022-10-16T04:06:39.516Z,97059.25
2022-10-16T04:09:07.766Z,97064.66
2022-10-16T04:11:37.412Z,97065.06
2022-10-16T04:14:05.959Z,97072.00
2022-10-16T04:16:34.444Z,97070.50
2022-10-16T04:19:02.909Z,97070.50
2022-10-16T04:21:31.569Z,97067.44
2022-10-16T04:24:00.311Z,97064.88
2022-10-16T04:26:28.841Z,97062.44
2022-10-16T04:28:58.710Z,97059.53
2022-10-16T04:31:27.595Z,97064.75
2022-10-16T04:33:56.203Z,97070.69
2022-10-16T04:36:28.351Z,97067.84
2022-10-16T04:38:57.691Z,97065.47
2022-10-16T04:41:26.075Z,97057.81
2022-10-16T04:43:54.321Z,97061.94
2022-10-16T04:46:24.354Z,97061.91
2022-10-16T04:48:52.495Z,97064.47
2022-10-16T04:51:22.153Z,97055.59
2022-10-16T04:53:50.784Z,97055.59
2022-10-16T04:56:21.198Z,97068.81
2022-10-16T04:58:49.517Z,97067.00
2022-10-16T05:01:17.634Z,97071.69
2022-10-16T05:03:47.414Z,97064.38
2022-10-16T05:06:16.574Z,97072.03
2022-10-16T05:08:45.061Z,97072.91
2022-10-16T05:11:13.757Z,97071.41
2022-10-16T05:13:42.475Z,97067.34
2022-10-16T05:16:11.208Z,97076.66
2022-10-16T05:18:39.511Z,97081.50
2022-10-16T05:21:09.226Z,97080.88
2022-10-16T05:23:37.752Z,97072.00
2022-10-16T05:26:06.222Z,97075.47
2022-10-16T05:28:34.571Z,97085.94
2022-10-16T05:31:07.712Z,97090.38
2022-10-16T05:33:36.621Z,97080.63
2022-10-16T05:36:05.447Z,97081.91
2022-10-16T05:38:35.363Z,97088.69
2022-10-16T05:41:04.318Z,97078.88
2022-10-16T05:43:35.545Z,97080.69
2022-10-16T05:46:06.403Z,97086.06
2022-10-16T05:48:34.747Z,97090.25
2022-10-16T05:51:05.463Z,97097.13
2022-10-16T05:53:37.130Z,97098.81
2022-10-16T05:56:06.196Z,97096.00
2022-10-16T05:58:36.708Z,97101.00
2022-10-16T06:01:08.085Z,97106.63
2022-10-16T06:03:36.971Z,97111.78
2022-10-16T06:06:12.365Z,97121.81
2022-10-16T06:08:44.012Z,97118.34
2022-10-16T06:11:14.622Z,97117.28
2022-10-16T06:13:43.744Z,97118.72
2022-10-16T06:16:13.981Z,97124.94
2022-10-16T06:18:42.243Z,97131.84
2022-10-16T06:21:12.012Z,97140.09
2022-10-16T06:23:40.525Z,97150.22
2022-10-16T06:26:12.185Z,97146.34
2022-10-16T06:28:41.051Z,97153.41
2022-10-16T06:31:11.287Z,97151.00
2022-10-16T06:33:40.264Z,97153.22
2022-10-16T06:36:11.193Z,97163.25
2022-10-16T06:38:40.498Z,97165.59
2022-10-16T06:41:12.195Z,97166.59
2022-10-16T06:43:40.952Z,97174.47
2022-10-16T06:46:12.198Z,97170.50
2022-10-16T06:48:40.792Z,97182.81
2022-10-16T06:51:11.533Z,97172.94
2022-10-16T06:54:01.475Z,97174.13
2022-10-16T06:56:34.326Z,97171.53
2022-10-16T06:59:03.614Z,97184.13
2022-10-16T07:01:32.652Z,97182.88
2022-10-16T07:04:02.043Z,97170.91
2022-10-16T07:06:33.931Z,97166.25
2022-10-16T07:09:07.233Z,97172.06
2022-10-16T07:11:38.777Z,97162.41
2022-10-16T07:14:07.611Z,97163.38
2022-10-16T07:16:35.829Z,97183.31
2022-10-16T07:19:05.123Z,97180.25
2022-10-16T07:21:37.574Z,97183.00
2022-10-16T07:24:07.736Z,97170.94
2022-10-16T07:26:40.255Z,97183.44
2022-10-16T07:29:09.824Z,97186.47
2022-10-16T07:31:39.606Z,97199.78
2022-10-16T07:34:08.334Z,97197.00
2022-10-16T07:36:36.845Z,97210.56
2022-10-16T07:39:06.147Z,97199.28
2022-10-16T07:41:37.773Z,97194.03
2022-10-16T07:44:07.697Z,97199.63
2022-10-16T07:46:37.011Z,97203.03
2022-10-16T07:49:05.419Z,97212.72
2022-10-16T07:51:34.233Z,97208.22
2022-10-16T07:54:03.059Z,97210.66
2022-10-16T07:56:33.214Z,97230.00
2022-10-16T07:59:02.076Z,97235.38
2022-10-16T08:01:31.847Z,97246.81
2022-10-16T08:04:00.648Z,97240.13
2022-10-16T08:06:28.965Z,97245.56
2022-10-16T08:08:57.503Z,97244.44
2022-10-16T08:11:26.113Z,97237.81
2022-10-16T08:13:54.371Z,97243.03
2022-10-16T08:16:23.142Z,97245.53
2022-10-16T08:18:52.940Z,97245.06
2022-10-16T08:21:24.111Z,97233.97
2022-10-16T08:23:56.948Z,97231.19
2022-10-16T08:26:27.755Z,97231.28
2022-10-16T08:28:57.333Z,97235.38
2022-10-16T08:31:27.376Z,97243.78
2022-10-16T08:33:57.271Z,97247.41
2022-10-16T08:36:25.532Z,97249.28
2022-10-16T08:38:55.485Z,97252.19
2022-10-16T08:41:49.355Z,97260.03
2022-10-16T08:44:44.071Z,97266.78
2022-10-16T08:47:19.753Z,97259.44
2022-10-16T08:49:59.532Z,97246.41
2022-10-16T08:52:33.146Z,97254.34
2022-10-16T08:55:01.729Z,97256.03
2022-10-16T08:57:45.979Z,97243.13
2022-10-16T09:00:16.725Z,97242.88
2022-10-16T09:02:51.518Z,97249.16
2022-10-16T09:05:31.792Z,97253.19
2022-10-16T09:08:13.188Z,97255.56
2022-10-16T09:10:53.793Z,97259.69
2022-10-16T09:13:28.617Z,97257.88
2022-10-16T09:16:06.861Z,97250.78
2022-10-16T09:18:43.503Z,97243.47
2022-10-16T09:21:19.010Z,97239.31
2022-10-16T09:23:48.103Z,97243.84
2022-10-16T09:26:19.103Z,97257.63
2022-10-16T09:28:47.630Z,97264.25
2022-10-16T09:31:21.596Z,97268.69
2022-10-16T09:33:54.849Z,97270.28
2022-10-16T09:36:27.177Z,97271.03
2022-10-16T09:39:08.903Z,97272.81
2022-10-16T09:41:41.543Z,97275.00
2022-10-16T09:44:21.741Z,97278.44
2022-10-16T09:46:50.899Z,97276.22
2022-10-16T09:49:25.268Z,97265.81
2022-10-16T09:52:05.931Z,97264.13
2022-10-16T09:54:34.893Z,97271.13
2022-10-16T09:57:08.266Z,97263.47
2022-10-16T09:59:36.701Z,97276.69
2022-10-16T10:02:13.339Z,97265.19
2022-10-16T10:04:47.127Z,97268.09
2022-10-16T10:07:27.703Z,97271.72
2022-10-16T10:09:58.817Z,97270.16
2022-10-16T10:12:28.575Z,97270.91
2022-10-16T10:15:00.417Z,97268.81
2022-10-16T10:17:29.852Z,97268.06
2022-10-16T10:20:01.741Z,97271.13
2022-10-16T10:22:45.244Z,97270.88
2022-10-16T10:25:26.853Z,97269.19
2022-10-16T10:28:09.177Z,97277.38
2022-10-16T10:30:43.431Z,97268.47
2022-10-16T10:33:23.126Z,97282.84
2022-10-16T10:35:59.503Z,97288.00
2022-10-16T10:38:41.602Z,97289.25
2022-10-16T10:41:31.318Z,97307.06
2022-10-16T10:44:09.712Z,97298.41
2022-10-16T10:46:45.827Z,97288.53
2022-10-16T10:53:02.088Z,97299.56
2022-10-16T10:55:40.388Z,97305.44
2022-10-16T10:58:38.568Z,97310.94
2022-10-16T11:01:10.790Z,97312.34
2022-10-16T11:03:58.689Z,97297.94
2022-10-16T11:06:32.582Z,97314.16
2022-10-16T11:09:11.059Z,97317.19
2022-10-16T11:11:44.845Z,97321.91
2022-10-16T11:14:19.349Z,97318.31
2022-10-16T11:16:55.335Z,97314.22
2022-10-16T11:19:34.172Z,97310.19
2022-10-16T11:22:06.862Z,97309.72
2022-10-16T11:24:49.199Z,97318.78
2022-10-16T11:27:26.989Z,97315.94
2022-10-16T11:30:12.410Z,97323.41
2022-10-16T11:33:36.872Z,97324.59
2022-10-16T11:36:25.661Z,97331.69
2022-10-16T11:39:13.889Z,97327.88
2022-10-16T11:41:52.528Z,97319.75
2022-10-16T11:44:45.877Z,97327.44
2022-10-16T11:50:37.718Z,97317.16
2022-10-16T11:53:24.522Z,97333.50
2022-10-16T11:55:55.236Z,97341.72
2022-10-16T11:58:36.660Z,97320.88
2022-10-16T12:04:27.888Z,97330.88
2022-10-16T12:07:09.643Z,97321.97
2022-10-16T12:09:45.303Z,97318.75
2022-10-16T12:12:41.463Z,97317.66
2022-10-16T12:15:47.000Z,97318.66
2022-10-16T12:18:32.880Z,97316.13
2022-10-16T12:21:07.522Z,97322.25
2022-10-16T12:23:43.600Z,97316.88
2022-10-16T12:26:28.608Z,97324.63
2022-10-16T12:29:17.935Z,97329.84
2022-10-16T12:31:58.393Z,97333.84
2022-10-16T12:34:45.462Z,97324.84
2022-10-16T12:37:27.312Z,97332.38
2022-10-16T12:40:00.463Z,97335.66
2022-10-16T12:42:40.248Z,97341.31
2022-10-16T12:45:34.724Z,97334.44
2022-10-16T12:48:29.321Z,97328.66
2022-10-16T12:51:28.764Z,97325.06
2022-10-16T12:54:10.476Z,97336.28
2022-10-16T12:56:53.992Z,97334.03
2022-10-16T12:59:51.121Z,97342.78
2022-10-16T13:02:58.549Z,97338.13
2022-10-16T13:05:43.147Z,97338.03
2022-10-16T13:08:44.146Z,97348.59
2022-10-16T13:11:27.877Z,97353.00
2022-10-16T13:14:23.093Z,97348.94
2022-10-16T13:17:10.324Z,97351.25
2022-10-16T13:19:56.120Z,97357.97
2022-10-16T13:22:38.860Z,97357.41
2022-10-16T13:25:31.066Z,97362.53
2022-10-16T13:28:06.147Z,97360.22
2022-10-16T13:30:45.165Z,97362.66
2022-10-16T13:33:26.432Z,97370.00
2022-10-16T13:36:04.300Z,97371.28
2022-10-16T13:38:42.247Z,97374.31
2022-10-16T13:41:21.749Z,97373.88
2022-10-16T13:43:55.173Z,97374.63
2022-10-16T13:46:34.219Z,97376.13
2022-10-16T13:49:17.525Z,97369.84
2022-10-16T13:52:03.521Z,97371.09
2022-10-16T13:54:37.184Z,97370.13
2022-10-16T13:57:26.702Z,97378.78
2022-10-16T13:59:59.971Z,97374.00
2022-10-16T14:02:39.643Z,97379.69
2022-10-16T14:05:16.247Z,97383.53
2022-10-16T14:07:48.358Z,97381.56
2022-10-16T14:10:28.087Z,97406.69
2022-10-16T14:13:09.583Z,97403.44
2022-10-16T14:15:46.107Z,97395.88
2022-10-16T14:18:22.928Z,97399.63
2022-10-16T14:21:01.860Z,97395.06
2022-10-16T14:26:51.232Z,97393.72
2022-10-16T14:29:24.715Z,97399.22
2022-10-16T14:32:08.868Z,97407.31
2022-10-16T14:35:01.782Z,97408.31
2022-10-16T14:37:39.109Z,97415.47
2022-10-16T14:40:20.799Z,97407.66
2022-10-16T14:42:56.485Z,97412.28
2022-10-16T14:45:35.364Z,97412.41
2022-10-16T14:48:20.492Z,97413.22
2022-10-16T14:50:53.974Z,97412.50
2022-10-16T14:53:29.146Z,97412.53
2022-10-16T14:56:02.349Z,97415.16
2022-10-16T14:58:38.203Z,97413.78
2022-10-16T15:01:15.713Z,97412.28
2022-10-16T15:03:47.924Z,97410.44
2022-10-16T15:06:24.296Z,97417.56
2022-10-16T15:09:01.441Z,97413.59
2022-10-16T15:11:40.385Z,97414.91
2022-10-16T15:14:18.385Z,97407.09
2022-10-16T15:16:58.923Z,97411.34
2022-10-16T15:19:39.106Z,97407.38
2022-10-16T15:22:16.794Z,97418.00
2022-10-16T15:24:47.777Z,97418.13
2022-10-16T15:27:17.441Z,97419.47
2022-10-16T15:29:45.975Z,97416.78
2022-10-16T15:32:16.660Z,97416.03
2022-10-16T15:34:45.477Z,97414.94
2022-10-16T15:37:14.985Z,97423.44
2022-10-16T15:39:43.437Z,97418.31
2022-10-16T15:42:12.068Z,97433.19
2022-10-16T15:44:40.622Z,97433.59
2022-10-16T15:47:10.334Z,97435.75
2022-10-16T15:49:40.824Z,97444.66
2022-10-16T15:52:09.276Z,97457.91
2022-10-16T15:54:37.874Z,97456.16
2022-10-16T15:57:06.469Z,97462.22
2022-10-16T15:59:35.582Z,97467.09
2022-10-16T16:02:04.011Z,97457.16
2022-10-16T16:05:07.508Z,97458.41
2022-10-16T16:07:36.495Z,97460.53
2022-10-16T16:10:07.828Z,97453.41
2022-10-16T16:12:36.329Z,97459.09
2022-10-16T16:15:06.089Z,97454.88
2022-10-16T16:17:34.673Z,97453.72
2022-10-16T16:20:03.318Z,97466.53
2022-10-16T16:22:33.138Z,97471.03
2022-10-16T16:25:01.297Z,97477.75
2022-10-16T16:27:31.259Z,97481.25
2022-10-16T16:29:59.800Z,97484.19
2022-10-16T16:32:28.765Z,97480.03
2022-10-16T16:34:57.394Z,97487.91
2022-10-16T16:37:25.907Z,97485.13
2022-10-16T16:39:59.312Z,97491.19
2022-10-16T16:42:28.828Z,97491.13
2022-10-16T16:44:57.102Z,97497.94
2022-10-16T16:47:25.736Z,97498.97
2022-10-16T16:49:54.375Z,97496.16
2022-10-16T16:52:23.418Z,97499.84
2022-10-16T16:54:52.971Z,97510.81
2022-10-16T16:57:23.004Z,97507.22
2022-10-16T16:59:52.844Z,97512.94
2022-10-16T17:02:21.034Z,97513.56
2022-10-16T17:04:49.469Z,97536.78
2022-10-16T17:07:20.649Z,97540.97
2022-10-16T17:09:51.541Z,97541.59
2022-10-16T17:12:20.110Z,97545.72
2022-10-16T17:14:49.749Z,97535.50
2022-10-16T17:17:18.200Z,97545.78
2022-10-16T17:19:46.422Z,97554.69
2022-10-16T17:22:14.653Z,97562.06
2022-10-16T17:24:42.802Z,97568.63
2022-10-16T17:27:12.575Z,97567.81
2022-10-16T17:29:40.906Z,97568.00
2022-10-16T17:32:11.892Z,97566.50
2022-10-16T17:34:40.631Z,97575.81
2022-10-16T17:37:09.012Z,97577.78
2022-10-16T17:39:37.290Z,97584.75
2022-10-16T17:42:05.459Z,97582.94
2022-10-16T17:44:33.963Z,97593.31
2022-10-16T17:47:02.299Z,97599.81
2022-10-16T17:49:31.881Z,97597.28
2022-10-16T17:52:03.141Z,97594.59
2022-10-16T17:54:31.521Z,97605.06
2022-10-16T17:56:59.811Z,97604.56
2022-10-16T17:59:29.375Z,97604.81
2022-10-16T18:01:57.620Z,97605.47
2022-10-16T18:04:25.842Z,97607.00
2022-10-16T18:06:56.768Z,97607.47
2022-10-16T18:09:25.436Z,97610.16
2022-10-16T18:11:59.939Z,97605.09
2022-10-16T18:14:29.964Z,97613.41
2022-10-16T18:16:58.912Z,97618.78
2022-10-16T18:19:27.547Z,97611.44
2022-10-16T18:21:57.016Z,97627.31
2022-10-16T18:24:25.931Z,97629.53
2022-10-16T18:26:56.881Z,97638.31
2022-10-16T18:29:26.076Z,97633.59
2022-10-16T18:31:55.057Z,97639.44
2022-10-16T18:34:24.155Z,97645.09
2022-10-16T18:36:54.331Z,97646.16
2022-10-16T18:39:24.899Z,97648.22
2022-10-16T18:41:59.604Z,97639.97
2022-10-16T18:44:28.286Z,97650.09
2022-10-16T18:46:59.191Z,97650.50
2022-10-16T18:49:28.246Z,97654.81
2022-10-16T18:51:57.686Z,97654.44
2022-10-16T18:54:27.362Z,97654.97
2022-10-16T18:56:55.754Z,97667.31
2022-10-16T18:59:26.328Z,97666.84
2022-10-16T19:01:54.703Z,97672.09
2022-10-16T19:04:23.995Z,97686.47
2022-10-16T19:06:54.542Z,97694.84
2022-10-16T19:09:25.612Z,97685.97
2022-10-16T19:11:55.156Z,97691.50
2022-10-16T19:14:25.294Z,97693.78
2022-10-16T19:16:53.533Z,97686.03
2022-10-16T19:19:23.842Z,97692.53
2022-10-16T19:21:56.564Z,97707.41
2022-10-16T19:24:25.093Z,97708.56
2022-10-16T19:26:53.588Z,97710.09
2022-10-16T19:29:23.275Z,97713.03
2022-10-16T19:31:51.671Z,97706.66
2022-10-16T19:34:20.125Z,97714.91
2022-10-16T19:36:49.772Z,97714.91
2022-10-16T19:41:51.476Z,97710.75
2022-10-16T19:44:19.989Z,97714.41
2022-10-16T19:46:49.631Z,97718.47
2022-10-16T19:49:21.813Z,97718.66
2022-10-16T19:51:51.860Z,97718.41
2022-10-16T19:54:21.439Z,97718.31
2022-10-16T19:56:49.910Z,97707.75
2022-10-16T19:59:20.264Z,97708.38
2022-10-16T20:01:49.941Z,97710.56
2022-10-16T20:04:18.756Z,97707.72
2022-10-16T20:06:47.236Z,97709.19
2022-10-16T20:09:15.785Z,97710.41
2022-10-16T20:11:44.142Z,97700.41
2022-10-16T20:14:12.447Z,97703.53
2022-10-16T20:16:41.255Z,97707.25
2022-10-16T20:19:11.322Z,97711.88
2022-10-16T20:21:39.775Z,97720.19
2022-10-16T20:24:08.919Z,97727.63
2022-10-16T20:26:38.104Z,97734.31
2022-10-16T20:29:06.990Z,97745.78
2022-10-16T20:31:36.349Z,97742.66
2022-10-16T20:34:09.689Z,97741.25
2022-10-16T20:36:43.455Z,97749.88
2022-10-16T20:39:13.772Z,97757.56
2022-10-16T20:41:42.153Z,97766.09
2022-10-16T20:44:10.638Z,97759.88
2022-10-16T20:46:39.071Z,97758.56
2022-10-16T20:49:11.275Z,97760.03
2022-10-16T20:51:51.214Z,97755.47
2022-10-16T20:54:19.569Z,97754.63
2022-10-16T20:56:48.429Z,97752.06
2022-10-16T20:59:16.828Z,97751.22
2022-10-16T21:01:45.200Z,97742.09
2022-10-16T21:04:13.540Z,97742.66
2022-10-16T21:06:41.918Z,97742.22
2022-10-16T21:09:11.818Z,97752.00
2022-10-16T21:11:40.203Z,97748.16
2022-10-16T21:14:10.054Z,97743.34
2022-10-16T21:16:38.317Z,97750.81
2022-10-16T21:19:06.711Z,97743.28
2022-10-16T21:21:38.165Z,97748.94
2022-10-16T21:24:09.901Z,97746.59
2022-10-16T21:26:42.655Z,97749.69
2022-10-16T21:29:11.172Z,97755.34
2022-10-16T21:31:40.040Z,97754.88
2022-10-16T21:34:08.696Z,97744.09
2022-10-16T21:36:39.276Z,97744.66
2022-10-16T21:39:09.460Z,97743.97
2022-10-16T21:41:38.477Z,97749.78
2022-10-16T21:44:08.952Z,97745.47
2022-10-16T21:46:39.936Z,97750.50
2022-10-16T21:49:11.309Z,97756.75
2022-10-16T21:51:41.610Z,97761.28
2022-10-16T21:54:12.807Z,97767.03
2022-10-16T21:56:41.257Z,97767.94
2022-10-16T21:59:12.571Z,97778.34
2022-10-16T22:01:42.102Z,97783.97
2022-10-16T22:04:11.587Z,97787.13
2022-10-16T22:06:40.137Z,97786.22
2022-10-16T22:09:08.740Z,97795.28
2022-10-16T22:11:38.331Z,97798.16
2022-10-16T22:14:08.270Z,97811.00
2022-10-16T22:16:38.084Z,97812.88
2022-10-16T22:19:08.130Z,97811.88
2022-10-16T22:21:38.446Z,97811.50
2022-10-16T22:24:07.515Z,97820.16
2022-10-16T22:26:36.204Z,97815.94
2022-10-16T22:29:05.597Z,97814.22
2022-10-16T22:31:34.643Z,97813.50
2022-10-16T22:34:06.100Z,97817.59
2022-10-16T22:36:35.188Z,97813.97
2022-10-16T22:39:04.028Z,97812.59
2022-10-16T22:41:32.713Z,97813.16
2022-10-16T22:44:00.932Z,97805.28
2022-10-16T22:46:30.985Z,97812.81
2022-10-16T22:49:00.101Z,97811.19
2022-10-16T22:51:29.748Z,97811.34
2022-10-16T22:53:59.665Z,97807.97
2022-10-16T22:56:27.951Z,97808.06
2022-10-16T22:58:56.317Z,97815.34
2022-10-16T23:01:28.084Z,97818.97
2022-10-16T23:03:56.528Z,97823.41
2022-10-16T23:06:24.949Z,97835.03
2022-10-16T23:08:55.539Z,97823.69
2022-10-16T23:11:24.348Z,97822.06
2022-10-16T23:13:53.140Z,97834.94
2022-10-16T23:16:22.941Z,97832.13
2022-10-16T23:18:51.338Z,97834.34
2022-10-16T23:21:21.755Z,97832.97
2022-10-16T23:23:50.692Z,97828.06
2022-10-16T23:26:22.494Z,97828.50
2022-10-16T23:28:50.949Z,97839.72
2022-10-16T23:31:19.484Z,97838.75
2022-10-16T23:33:49.020Z,97844.38
2022-10-16T23:36:19.801Z,97843.91
2022-10-16T23:38:48.884Z,97841.91
2022-10-16T23:41:18.304Z,97843.53
2022-10-16T23:43:48.026Z,97836.13
2022-10-16T23:46:16.585Z,97838.06
2022-10-16T23:48:44.949Z,97840.56
2022-10-16T23:51:13.542Z,97826.59
2022-10-16T23:53:41.989Z,97844.63
2022-10-16T23:56:11.769Z,97849.53
2022-10-16T23:58:40.002Z,97837.09
